Time;durP1;ratioP1;P1;durP2;ratioP2;P2;SDS_P1;SDS_P2;PMS_P1;PMS_P2;Temp;Humidity;BMP_temperature;BMP_pressure;BME280_temperature;BME280_humidity;BME280_pressure;Samples;Min_cycle;Max_cycle;Signal;HPM_P1;HPM_P2
2022/04/08 00:02:04;;;;;;;4.38;2.50;;;4.80;99.90;;;;;;4996616;28;20419;-89
2022/04/08 00:04:32;;;;;;;6.15;1.33;;;4.50;99.90;;;;;;4996094;28;20152;-87
2022/04/08 00:06:58;;;;;;;5.25;1.20;;;5.00;99.90;;;;;;4980516;28;20077;-84
2022/04/08 00:09:24;;;;;;;5.93;1.20;;;4.60;99.90;;;;;;4980810;28;20048;-85
2022/04/08 00:11:50;;;;;;;9.38;2.08;;;4.60;99.90;;;;;;5012583;28;20132;-86
2022/04/08 00:14:18;;;;;;;7.18;1.95;;;4.60;99.90;;;;;;5012435;28;20046;-85
2022/04/08 00:16:45;;;;;;;2.85;0.80;;;5.30;99.90;;;;;;4980909;28;20068;-84
2022/04/08 00:19:10;;;;;;;4.85;1.10;;;5.00;99.90;;;;;;4980218;28;20103;-86
2022/04/08 00:21:36;;;;;;;8.10;1.88;;;4.60;99.90;;;;;;5012848;28;20045;-85
2022/04/08 00:24:03;;;;;;;3.05;1.00;;;4.60;99.90;;;;;;4979951;28;20513;-87
2022/04/08 00:26:29;;;;;;;3.00;0.90;;;4.60;99.90;;;;;;5012269;28;20129;-87
2022/04/08 00:28:54;;;;;;;6.40;1.38;;;4.60;99.90;;;;;;5013308;28;20077;-85
2022/04/08 00:31:20;;;;;;;4.93;1.38;;;4.60;99.90;;;;;;4997498;28;20046;-86
2022/04/08 00:33:46;;;;;;;5.68;1.35;;;5.20;99.90;;;;;;4983787;28;20045;-88
2022/04/08 00:36:12;;;;;;;6.05;1.35;;;5.10;99.90;;;;;;5016158;28;20129;-85
2022/04/08 00:38:37;;;;;;;5.30;1.48;;;4.50;99.90;;;;;;4983328;28;20088;-85
2022/04/08 00:41:03;;;;;;;5.75;1.42;;;4.70;99.90;;;;;;4983249;28;20062;-86
2022/04/08 00:43:37;;;;;;;9.93;1.77;;;4.50;99.90;;;;;;5000585;28;20046;-87
2022/04/08 00:46:06;;;;;;;3.92;1.05;;;4.50;99.90;;;;;;5016897;28;20046;-87
2022/04/08 00:48:32;;;;;;;2.92;1.00;;;4.70;99.90;;;;;;4999941;28;20046;-85
2022/04/08 00:50:59;;;;;;;4.53;1.15;;;4.50;99.90;;;;;;4983537;28;20088;-85
2022/04/08 00:53:27;;;;;;;2.22;0.80;;;4.90;99.90;;;;;;5000154;28;20053;-85
2022/04/08 00:55:52;;;;;;;1.95;1.08;;;5.40;99.90;;;;;;4999641;28;20072;-85
2022/04/08 00:58:18;;;;;;;4.93;1.20;;;5.40;99.90;;;;;;5016045;28;20534;-83
2022/04/08 01:00:44;;;;;;;3.28;1.08;;;5.50;99.90;;;;;;5016497;28;20046;-83
2022/04/08 01:03:10;;;;;;;2.42;0.80;;;4.50;99.90;;;;;;4999429;28;20057;-84
2022/04/08 01:05:36;;;;;;;4.57;1.17;;;5.20;99.90;;;;;;4983084;28;20049;-85
2022/04/08 01:08:03;;;;;;;2.90;0.95;;;4.60;99.90;;;;;;5015343;28;20162;-86
2022/04/08 01:10:29;;;;;;;1.98;0.70;;;4.40;99.90;;;;;;4999911;28;20049;-86
2022/04/08 01:12:55;;;;;;;4.40;0.98;;;4.30;99.90;;;;;;4999046;28;20046;-86
2022/04/08 01:15:22;;;;;;;2.25;0.70;;;4.80;99.90;;;;;;5015438;28;20140;-86
2022/04/08 01:17:49;;;;;;;2.58;1.15;;;4.30;99.90;;;;;;5015630;28;20077;-84
2022/04/08 01:20:15;;;;;;;2.67;0.80;;;4.10;99.90;;;;;;4982980;28;20391;-87
2022/04/08 01:22:42;;;;;;;1.02;0.45;;;5.10;99.90;;;;;;4998963;28;20049;-88
2022/04/08 01:25:09;;;;;;;1.70;0.60;;;5.10;99.90;;;;;;4982677;28;20140;-85
2022/04/08 01:27:35;;;;;;;2.60;1.15;;;3.80;99.90;;;;;;4982939;28;20389;-84
2022/04/08 01:30:04;;;;;;;1.92;0.60;;;3.80;99.90;;;;;;5015528;28;20050;-86
2022/04/08 01:32:29;;;;;;;1.13;0.50;;;3.80;99.90;;;;;;4998651;28;20471;-86
2022/04/08 01:34:55;;;;;;;4.25;0.60;;;3.70;99.90;;;;;;4982946;28;20056;-85
2022/04/08 01:37:21;;;;;;;1.48;0.57;;;3.70;99.90;;;;;;4999499;28;20533;-88
2022/04/08 01:39:47;;;;;;;1.75;0.40;;;4.40;99.90;;;;;;4998607;28;20390;-84
2022/04/08 01:42:13;;;;;;;2.35;0.85;;;3.60;99.90;;;;;;5014040;28;20141;-85
2022/04/08 01:44:39;;;;;;;2.42;0.60;;;3.60;99.90;;;;;;4983288;28;20046;-87
2022/04/08 01:47:05;;;;;;;1.15;0.57;;;4.40;99.90;;;;;;5014966;28;20133;-84
2022/04/08 01:49:32;;;;;;;5.93;0.80;;;3.50;99.90;;;;;;5014775;28;20046;-87
2022/04/08 01:51:57;;;;;;;1.00;0.60;;;3.50;99.90;;;;;;5014551;28;20471;-85
2022/04/08 01:54:23;;;;;;;3.17;0.90;;;3.40;99.90;;;;;;4999181;28;20053;-84
2022/04/08 01:56:49;;;;;;;2.88;0.90;;;3.60;99.90;;;;;;5014766;28;20045;-89
2022/04/08 01:59:15;;;;;;;2.97;0.82;;;3.20;99.90;;;;;;5015392;28;20042;-87
2022/04/08 02:01:41;;;;;;;2.65;0.80;;;4.00;99.90;;;;;;5014847;28;20049;-86
2022/04/08 02:04:07;;;;;;;1.90;0.60;;;3.10;99.90;;;;;;4998222;28;20042;-86
2022/04/08 02:06:35;;;;;;;2.65;1.13;;;3.30;99.90;;;;;;4998389;28;20133;-85
2022/04/08 02:09:01;;;;;;;3.15;0.73;;;3.90;99.90;;;;;;4998443;28;20045;-85
2022/04/08 02:11:26;;;;;;;3.00;0.88;;;3.10;99.90;;;;;;4997620;28;20054;-83
2022/04/08 02:13:52;;;;;;;2.83;1.38;;;3.70;99.90;;;;;;4998370;28;20069;-86
2022/04/08 02:16:18;;;;;;;3.63;0.80;;;4.20;99.90;;;;;;4998233;28;20081;-87
2022/04/08 02:18:44;;;;;;;2.88;0.98;;;3.00;99.90;;;;;;4997960;28;20461;-87
2022/04/08 02:21:10;;;;;;;2.92;0.90;;;3.10;99.90;;;;;;5013955;28;20045;-85
2022/04/08 02:23:36;;;;;;;3.38;1.58;;;3.00;99.90;;;;;;5014291;28;20433;-85
2022/04/08 02:26:06;;;;;;;2.88;1.05;;;2.90;99.90;;;;;;4981633;28;20049;-83
2022/04/08 02:28:35;;;;;;;2.35;0.80;;;2.90;99.90;;;;;;5014341;28;20391;-84
2022/04/08 02:31:01;;;;;;;3.17;0.88;;;2.80;99.90;;;;;;4998477;28;20061;-84
2022/04/08 02:33:27;;;;;;;2.80;0.90;;;2.80;99.90;;;;;;4997352;28;20046;-86
2022/04/08 02:35:52;;;;;;;4.38;0.80;;;2.70;99.90;;;;;;5013649;28;20042;-86
2022/04/08 02:38:18;;;;;;;3.80;1.73;;;3.50;99.90;;;;;;5013936;28;20053;-86
2022/04/08 02:40:44;;;;;;;4.22;1.08;;;3.60;99.90;;;;;;4997278;28;20050;-87
2022/04/08 02:43:09;;;;;;;2.55;0.80;;;2.70;99.90;;;;;;4982224;28;20057;-86
2022/04/08 02:45:36;;;;;;;2.20;0.80;;;3.10;99.90;;;;;;4998185;28;20045;-85
2022/04/08 02:48:02;;;;;;;3.65;1.20;;;3.40;99.90;;;;;;4997401;28;20050;-85
2022/04/08 02:50:28;;;;;;;2.83;0.88;;;2.60;99.90;;;;;;4997387;28;20060;-86
2022/04/08 02:52:53;;;;;;;4.88;1.00;;;2.60;99.90;;;;;;4997445;28;20386;-86
2022/04/08 02:55:19;;;;;;;7.55;1.20;;;3.50;99.90;;;;;;4980877;28;20398;-84
2022/04/08 02:57:46;;;;;;;5.53;1.40;;;2.60;99.90;;;;;;4997324;28;20443;-84
2022/04/08 03:00:16;;;;;;;4.43;1.35;;;2.60;99.90;;;;;;4981234;28;20100;-86
2022/04/08 03:02:46;;;;;;;2.53;0.98;;;2.60;99.90;;;;;;4997088;28;20077;-85
2022/04/08 03:05:12;;;;;;;5.78;1.15;;;3.70;99.90;;;;;;4997105;28;20101;-84
2022/04/08 03:07:37;;;;;;;6.10;1.83;;;2.60;99.90;;;;;;5013620;28;20050;-86
2022/04/08 03:10:05;;;;;;;10.52;1.80;;;3.60;99.90;;;;;;4965361;28;20132;-84
2022/04/08 03:12:31;;;;;;;6.05;1.48;;;2.80;99.90;;;;;;5013873;28;20056;-87
2022/04/08 03:14:58;;;;;;;4.13;1.38;;;2.90;99.90;;;;;;4997282;28;20050;-87
2022/04/08 03:17:23;;;;;;;9.45;1.75;;;2.90;99.90;;;;;;4980707;28;20053;-87
2022/04/08 03:19:49;;;;;;;5.43;1.25;;;3.50;99.90;;;;;;4996523;28;20430;-85
2022/04/08 03:22:19;;;;;;;4.35;1.10;;;2.90;99.90;;;;;;5013171;28;20088;-85
2022/04/08 03:24:46;;;;;;;7.55;2.25;;;2.90;99.90;;;;;;4966008;28;20379;-86
2022/04/08 03:27:11;;;;;;;7.18;1.80;;;3.90;99.90;;;;;;4980655;28;20050;-83
2022/04/08 03:29:37;;;;;;;4.40;1.40;;;2.80;99.90;;;;;;4980345;28;20048;-82
2022/04/08 03:32:03;;;;;;;6.75;1.77;;;2.90;99.90;;;;;;4980023;28;20057;-84
2022/04/08 03:34:29;;;;;;;4.05;1.27;;;2.90;99.90;;;;;;4996350;28;20045;-85
2022/04/08 03:36:54;;;;;;;3.63;1.88;;;3.00;99.90;;;;;;5012780;28;20133;-85
2022/04/08 03:39:20;;;;;;;8.85;1.20;;;3.20;99.90;;;;;;4980426;28;20096;-86
2022/04/08 03:41:46;;;;;;;5.32;2.55;;;3.60;99.90;;;;;;4996171;28;20070;-84
2022/04/08 03:44:11;;;;;;;5.05;2.10;;;3.60;99.90;;;;;;4979990;28;20053;-85
2022/04/08 03:46:37;;;;;;;3.97;1.17;;;3.70;99.90;;;;;;4996482;28;20049;-85
2022/04/08 03:49:11;;;;;;;8.30;2.15;;;3.60;99.90;;;;;;4980177;28;20445;-86
2022/04/08 03:51:36;;;;;;;4.10;1.45;;;3.00;99.90;;;;;;5013425;28;20046;-86
2022/04/08 03:54:02;;;;;;;8.52;1.90;;;2.90;99.90;;;;;;4980226;28;20042;-85
2022/04/08 03:56:28;;;;;;;6.72;1.83;;;3.00;99.90;;;;;;4996388;28;20406;-87
2022/04/08 03:58:54;;;;;;;3.88;1.20;;;2.90;99.90;;;;;;4964521;28;20050;-87
2022/04/08 04:01:19;;;;;;;6.78;1.40;;;3.60;99.90;;;;;;4996225;28;20053;-86
2022/04/08 04:03:45;;;;;;;4.30;1.15;;;3.90;99.90;;;;;;4981013;28;20073;-85
2022/04/08 04:06:11;;;;;;;6.45;2.72;;;3.70;99.90;;;;;;5000233;28;20164;-85
2022/04/08 04:08:37;;;;;;;5.65;1.67;;;3.90;99.90;;;;;;4968488;28;20072;-87
2022/04/08 04:11:03;;;;;;;3.15;1.15;;;3.00;99.90;;;;;;5016649;28;20485;-83
2022/04/08 04:13:28;;;;;;;4.63;1.13;;;3.80;99.90;;;;;;4984671;28;20052;-90
2022/04/08 04:15:54;;;;;;;5.80;1.20;;;3.00;99.90;;;;;;4984754;28;20046;-87
2022/04/08 04:18:20;;;;;;;2.20;1.85;;;3.50;99.90;;;;;;5000235;28;20386;-85
2022/04/08 04:20:45;;;;;;;5.88;1.38;;;3.10;99.90;;;;;;4968813;28;20140;-85
2022/04/08 04:23:11;;;;;;;3.45;0.88;;;3.10;99.90;;;;;;5000445;28;20046;-87
2022/04/08 04:25:37;;;;;;;3.75;1.08;;;3.10;99.90;;;;;;5000290;28;20054;-89
2022/04/08 04:28:03;;;;;;;4.45;1.30;;;3.00;99.90;;;;;;4983924;28;20081;-86
2022/04/08 04:30:28;;;;;;;5.30;1.08;;;2.90;99.90;;;;;;4985134;28;20042;-88
2022/04/08 04:32:56;;;;;;;3.45;1.27;;;3.80;99.90;;;;;;5017024;28;20054;-88
2022/04/08 04:35:22;;;;;;;6.25;1.88;;;4.00;99.90;;;;;;4984586;28;20042;-85
2022/04/08 04:37:48;;;;;;;7.72;2.33;;;4.10;99.90;;;;;;4984732;28;20573;-90
2022/04/08 04:40:14;;;;;;;3.13;1.45;;;3.70;99.90;;;;;;5000296;28;20092;-87
2022/04/08 04:42:40;;;;;;;4.35;1.27;;;4.00;99.90;;;;;;4983902;28;20062;-87
2022/04/08 04:45:06;;;;;;;4.25;1.20;;;4.00;99.90;;;;;;4983870;28;20038;-88
2022/04/08 04:47:32;;;;;;;4.95;1.17;;;2.80;99.90;;;;;;5000301;28;20139;-88
2022/04/08 04:49:57;;;;;;;4.22;1.42;;;3.80;99.90;;;;;;4983749;28;20045;-88
2022/04/08 04:52:23;;;;;;;2.42;1.23;;;3.70;99.90;;;;;;4999937;28;20393;-87
2022/04/08 04:54:49;;;;;;;2.42;1.23;;;3.30;99.90;;;;;;4967449;28;20049;-85
2022/04/08 04:57:15;;;;;;;4.28;1.33;;;3.70;99.90;;;;;;5000029;28;20045;-86
2022/04/08 04:59:41;;;;;;;4.85;1.58;;;2.60;99.90;;;;;;5000036;28;20041;-88
2022/04/08 05:02:07;;;;;;;3.40;1.23;;;2.60;99.90;;;;;;4983552;28;20453;-85
2022/04/08 05:04:32;;;;;;;5.72;1.40;;;2.70;99.90;;;;;;5015809;28;20045;-87
2022/04/08 05:06:58;;;;;;;8.23;1.70;;;2.60;99.90;;;;;;4999673;28;20045;-87
2022/04/08 05:09:24;;;;;;;5.70;1.38;;;2.80;99.90;;;;;;4999366;28;20537;-86
2022/04/08 05:11:49;;;;;;;4.47;1.02;;;2.50;99.90;;;;;;4983756;28;20520;-88
2022/04/08 05:14:15;;;;;;;2.63;1.20;;;2.60;99.90;;;;;;4983641;28;20046;-83
2022/04/08 05:16:41;;;;;;;4.78;1.27;;;2.60;99.90;;;;;;5014850;28;20086;-86
2022/04/08 05:19:06;;;;;;;3.78;1.35;;;2.60;99.90;;;;;;4999195;28;20096;-87
2022/04/08 05:21:33;;;;;;;2.85;1.15;;;2.60;99.90;;;;;;4982876;28;20050;-87
2022/04/08 05:23:59;;;;;;;4.07;1.50;;;2.60;99.90;;;;;;4983141;28;20061;-86
2022/04/08 05:26:25;;;;;;;3.30;1.20;;;3.30;99.90;;;;;;5015904;28;20038;-85
2022/04/08 05:28:51;;;;;;;3.38;1.50;;;3.00;99.90;;;;;;5015015;28;20057;-84
2022/04/08 05:31:16;;;;;;;5.35;1.65;;;3.50;99.90;;;;;;4998852;28;20049;-85
2022/04/08 05:33:42;;;;;;;5.43;1.20;;;2.60;99.90;;;;;;4998820;28;20046;-85
2022/04/08 05:36:08;;;;;;;4.45;1.20;;;2.60;99.90;;;;;;5015060;28;20045;-84
2022/04/08 05:38:34;;;;;;;4.28;1.50;;;2.70;99.90;;;;;;4982838;28;20100;-84
2022/04/08 05:40:59;;;;;;;5.15;1.63;;;2.70;99.90;;;;;;4982955;28;20116;-84
2022/04/08 05:43:25;;;;;;;3.17;1.55;;;3.40;99.90;;;;;;5015309;28;20064;-85
2022/04/08 05:45:52;;;;;;;4.40;1.30;;;2.90;99.90;;;;;;4998596;28;20545;-86
2022/04/08 05:48:18;;;;;;;3.03;1.60;;;3.00;99.90;;;;;;4998449;28;20460;-84
2022/04/08 05:50:43;;;;;;;4.50;1.60;;;3.90;99.90;;;;;;4998327;28;20133;-86
2022/04/08 05:53:09;;;;;;;3.80;1.60;;;4.20;99.90;;;;;;4998461;28;20515;-84
2022/04/08 05:55:35;;;;;;;3.17;1.17;;;3.80;99.90;;;;;;4983102;28;20374;-86
2022/04/08 05:58:00;;;;;;;6.53;1.65;;;4.00;99.90;;;;;;5014792;28;20049;-86
2022/04/08 06:00:26;;;;;;;3.35;1.27;;;3.60;99.90;;;;;;4966368;28;20533;-87
2022/04/08 06:02:55;;;;;;;4.35;2.38;;;4.20;99.90;;;;;;5014908;28;20049;-86
2022/04/08 06:05:21;;;;;;;3.63;1.25;;;3.30;99.90;;;;;;4998735;28;20490;-89
2022/04/08 06:07:54;;;;;;;5.05;1.10;;;3.30;99.90;;;;;;4998269;28;20049;-86
2022/04/08 06:10:22;;;;;;;5.35;1.90;;;3.40;99.90;;;;;;4998522;28;20046;-87
2022/04/08 06:12:52;;;;;;;4.35;1.50;;;4.50;99.90;;;;;;4982673;28;20103;-84
2022/04/08 06:15:19;;;;;;;3.30;1.45;;;4.40;99.90;;;;;;5014869;28;20053;-85
2022/04/08 06:17:45;;;;;;;3.75;1.60;;;3.50;99.90;;;;;;4999383;28;20502;-90
2022/04/08 06:20:16;;;;;;;3.63;1.35;;;4.50;99.90;;;;;;5002673;28;20081;-93
2022/04/08 06:22:47;;;;;;;3.67;1.20;;;3.50;99.90;;;;;;5004895;28;20053;-89
2022/04/08 06:25:20;;;;;;;4.32;1.20;;;4.70;99.90;;;;;;5020791;28;20041;-91
2022/04/08 06:28:08;;;;;;;2.83;1.35;;;3.60;99.90;;;;;;5004861;28;20050;-90
2022/04/08 06:30:37;;;;;;;2.97;1.10;;;3.50;99.90;;;;;;5004690;28;20052;-89
2022/04/08 06:33:07;;;;;;;3.03;1.45;;;3.60;99.90;;;;;;5004869;28;20096;-91
2022/04/08 06:35:36;;;;;;;6.03;2.22;;;3.60;99.90;;;;;;5003665;28;20041;-92
2022/04/08 06:38:05;;;;;;;4.15;1.50;;;4.60;99.90;;;;;;5006039;28;20065;-90
2022/04/08 06:40:32;;;;;;;1.85;1.20;;;3.50;99.90;;;;;;5005031;28;20052;-90
2022/04/08 06:43:00;;;;;;;5.07;1.40;;;3.50;99.90;;;;;;5022145;28;20088;-92
2022/04/08 06:45:29;;;;;;;4.25;1.42;;;2.60;99.90;;;;;;5005726;28;20052;-93
2022/04/08 06:47:55;;;;;;;3.47;1.45;;;3.50;99.90;;;;;;4988706;28;20050;-91
2022/04/08 06:50:25;;;;;;;5.15;1.35;;;4.00;99.90;;;;;;5005063;28;20116;-90
2022/04/08 06:52:51;;;;;;;2.88;1.10;;;5.40;99.90;;;;;;5003745;28;20046;-91
2022/04/08 06:55:20;;;;;;;3.22;1.30;;;3.70;99.90;;;;;;5020414;28;20065;-92
2022/04/08 06:57:45;;;;;;;1.70;1.00;;;3.40;99.90;;;;;;5002506;28;20052;-90
2022/04/08 07:00:15;;;;;;;3.60;1.30;;;3.40;99.90;;;;;;5020779;28;20046;-91
2022/04/08 07:02:41;;;;;;;3.35;1.20;;;;;;;;;;5005513;28;20049;-91
2022/04/08 07:05:10;;;;;;;4.85;1.08;;;3.40;99.90;;;;;;5003805;28;20136;-92
2022/04/08 07:07:39;;;;;;;3.00;1.25;;;;;;;;;;5000822;28;20049;-89
2022/04/08 07:10:08;;;;;;;1.88;1.10;;;3.60;99.90;;;;;;5018182;28;20056;-93
2022/04/08 07:12:34;;;;;;;2.70;1.20;;;3.70;99.90;;;;;;5000902;28;20042;-93
2022/04/08 07:15:03;;;;;;;2.03;0.93;;;4.80;99.90;;;;;;5016871;28;20052;-92
2022/04/08 07:17:36;;;;;;;3.03;1.33;;;5.20;99.90;;;;;;4999407;28;20057;-88
2022/04/08 07:20:04;;;;;;;3.38;2.00;;;3.60;99.90;;;;;;5000182;28;20046;-90
2022/04/08 07:22:30;;;;;;;3.53;1.20;;;3.60;99.90;;;;;;4998793;28;20049;-94
2022/04/08 07:24:56;;;;;;;2.83;1.17;;;4.10;99.90;;;;;;4982095;28;20158;-93
2022/04/08 07:27:25;;;;;;;2.28;1.20;;;3.80;99.90;;;;;;4997949;28;20049;-90
2022/04/08 07:29:51;;;;;;;3.35;1.15;;;;;;;;;;5014834;28;20134;-90
2022/04/08 07:32:21;;;;;;;3.35;1.10;;;;;;;;;;5015596;28;20411;-91
2022/04/08 07:34:51;;;;;;;1.95;1.08;;;4.10;99.90;;;;;;5015609;28;20045;-89
2022/04/08 07:37:30;;;;;;;3.40;1.20;;;5.10;99.90;;;;;;4999419;28;20097;-91
2022/04/08 07:39:56;;;;;;;1.80;1.00;;;4.30;99.90;;;;;;5014658;28;20085;-90
2022/04/08 07:42:25;;;;;;;2.25;1.02;;;4.40;99.90;;;;;;4981127;28;20144;-90
2022/04/08 07:44:57;;;;;;;3.25;1.10;;;5.30;99.90;;;;;;4982286;28;20052;-90
2022/04/08 07:47:27;;;;;;;2.88;1.10;;;4.70;99.90;;;;;;4983279;28;20084;-91
2022/04/08 07:49:57;;;;;;;1.90;1.10;;;5.10;99.90;;;;;;4998659;28;20060;-85
2022/04/08 07:52:26;;;;;;;1.90;1.20;;;5.60;99.90;;;;;;4998259;28;20052;-90
2022/04/08 07:54:55;;;;;;;2.60;1.52;;;5.00;99.90;;;;;;4983738;28;20042;-87
2022/04/08 07:57:22;;;;;;;3.38;1.58;;;5.90;99.90;;;;;;4998574;28;20053;-86
2022/04/08 07:59:51;;;;;;;2.92;1.42;;;;;;;;;;5013593;28;20057;-90
2022/04/08 08:02:17;;;;;;;1.88;1.20;;;;;;;;;;4998617;28;20166;-89
2022/04/08 08:04:45;;;;;;;3.15;1.40;;;5.40;99.90;;;;;;4998481;28;20058;-89
2022/04/08 08:07:12;;;;;;;4.57;1.63;;;;;;;;;;4997912;28;20046;-92
2022/04/08 08:09:43;;;;;;;3.67;1.67;;;5.80;99.90;;;;;;4997794;28;20494;-88
2022/04/08 08:12:09;;;;;;;3.88;1.10;;;5.90;99.90;;;;;;5014236;28;20459;-91
2022/04/08 08:14:38;;;;;;;5.68;1.67;;;5.80;99.90;;;;;;4997313;28;20046;-92
2022/04/08 08:17:05;;;;;;;7.63;2.30;;;;;;;;;;5014077;28;20387;-92
2022/04/08 08:19:42;;;;;;;4.70;1.60;;;5.20;99.90;;;;;;5014208;28;20053;-89
2022/04/08 08:22:08;;;;;;;6.78;1.88;;;4.90;99.90;;;;;;5013201;28;20056;-90
2022/04/08 08:24:34;;;;;;;3.60;2.08;;;4.50;99.90;;;;;;4996637;28;20041;-87
2022/04/08 08:27:02;;;;;;;2.80;1.40;;;4.90;99.90;;;;;;4997557;28;20107;-92
2022/04/08 08:29:30;;;;;;;6.15;2.22;;;5.20;99.90;;;;;;4997465;28;20045;-92
2022/04/08 08:31:56;;;;;;;4.25;1.80;;;4.60;99.90;;;;;;5013407;28;20098;-88
2022/04/08 08:34:22;;;;;;;3.67;1.60;;;5.60;99.90;;;;;;4998086;28;20050;-91
2022/04/08 08:36:47;;;;;;;4.70;1.50;;;4.90;99.90;;;;;;4997150;28;20097;-90
2022/04/08 08:39:13;;;;;;;6.07;1.70;;;6.20;99.90;;;;;;5012593;28;20053;-89
2022/04/08 08:41:42;;;;;;;5.20;1.88;;;6.30;99.90;;;;;;4996207;28;20054;-89
2022/04/08 08:44:08;;;;;;;5.10;1.70;;;;;;;;;;5013174;28;20053;-87
2022/04/08 08:46:35;;;;;;;7.20;3.55;;;5.10;99.90;;;;;;4998089;28;20079;-92
2022/04/08 08:49:03;;;;;;;4.28;1.95;;;6.40;99.90;;;;;;4997449;28;20191;-89
2022/04/08 08:51:35;;;;;;;3.33;2.17;;;5.30;99.90;;;;;;5013433;28;20085;-90
2022/04/08 08:54:00;;;;;;;6.30;1.92;;;5.20;99.90;;;;;;4986302;28;20052;-90
2022/04/08 08:56:27;;;;;;;5.78;2.38;;;;;;;;;;5001921;28;20089;-93
2022/04/08 08:58:55;;;;;;;3.42;1.90;;;5.50;99.90;;;;;;5000885;28;20046;-91
2022/04/08 09:01:21;;;;;;;3.47;2.13;;;5.50;99.90;;;;;;5017167;28;20129;-94
2022/04/08 09:03:48;;;;;;;5.15;2.33;;;7.10;99.90;;;;;;5000461;28;20061;-89
2022/04/08 09:06:16;;;;;;;4.63;2.15;;;;;;;;;;5000603;28;20049;-91
2022/04/08 09:08:42;;;;;;;4.82;2.33;;;;;;;;;;5000593;28;20049;-88
2022/04/08 09:11:10;;;;;;;3.30;1.92;;;6.00;99.90;;;;;;5016008;28;20042;-88
2022/04/08 09:13:45;;;;;;;3.10;2.08;;;7.00;99.90;;;;;;4999547;28;20082;-85
2022/04/08 09:16:11;;;;;;;2.80;1.90;;;6.20;99.90;;;;;;5016072;28;20042;-94
2022/04/08 09:18:41;;;;;;;7.50;2.15;;;6.80;99.90;;;;;;4984282;28;20049;-90
2022/04/08 09:21:08;;;;;;;4.00;2.47;;;6.20;99.90;;;;;;5001143;28;20073;-92
2022/04/08 09:23:36;;;;;;;5.05;2.03;;;;;;;;;;5017129;28;20057;-89
2022/04/08 09:26:04;;;;;;;3.90;1.92;;;6.50;99.90;;;;;;5016168;28;20486;-87
2022/04/08 09:28:35;;;;;;;3.75;1.88;;;7.00;99.90;;;;;;5000610;28;20058;-88
2022/04/08 09:31:02;;;;;;;2.80;1.70;;;6.70;99.90;;;;;;5000616;28;20438;-92
2022/04/08 09:33:28;;;;;;;4.30;2.00;;;6.80;99.90;;;;;;5000131;28;20038;-92
2022/04/08 09:35:56;;;;;;;4.25;2.92;;;6.90;99.90;;;;;;5017532;28;20046;-92
2022/04/08 09:38:29;;;;;;;3.83;1.88;;;6.90;99.90;;;;;;5000774;28;20050;-90
2022/04/08 09:41:00;;;;;;;6.18;1.85;;;7.00;99.90;;;;;;5015226;28;20115;-86
2022/04/08 09:43:34;;;;;;;4.90;2.10;;;7.20;99.90;;;;;;5015879;28;20148;-85
2022/04/08 09:46:14;;;;;;;6.32;2.58;;;7.80;99.90;;;;;;4999129;28;20049;-84
2022/04/08 09:48:41;;;;;;;6.80;2.72;;;7.50;99.90;;;;;;4998514;28;20470;-86
2022/04/08 09:51:20;;;;;;;8.77;2.22;;;7.30;99.90;;;;;;5015655;28;20054;-86
2022/04/08 09:53:53;;;;;;;6.15;3.05;;;7.20;99.90;;;;;;5000194;28;20128;-86
2022/04/08 09:56:22;;;;;;;6.85;2.60;;;7.70;99.90;;;;;;4998780;28;20116;-87
2022/04/08 09:59:03;;;;;;;6.65;2.55;;;7.40;99.90;;;;;;4998919;28;20517;-85
2022/04/08 10:01:29;;;;;;;5.95;2.22;;;7.30;99.90;;;;;;5015216;28;20482;-85
2022/04/08 10:03:55;;;;;;;6.88;2.75;;;7.30;99.90;;;;;;4999429;28;20050;-84
2022/04/08 10:06:23;;;;;;;6.20;3.00;;;7.10;99.90;;;;;;5000751;28;20181;-86
2022/04/08 10:08:50;;;;;;;9.50;3.10;;;7.70;99.90;;;;;;5000177;28;20056;-91
2022/04/08 10:11:35;;;;;;;5.28;2.30;;;7.30;99.90;;;;;;5014371;28;20042;-83
2022/04/08 10:14:23;;;;;;;6.07;2.45;;;7.00;99.90;;;;;;5015398;28;20050;-87
2022/04/08 10:16:52;;;;;;;8.07;2.88;;;6.90;99.90;;;;;;5015575;28;20049;-91
2022/04/08 10:19:18;;;;;;;7.03;2.42;;;7.80;99.90;;;;;;5000184;28;20046;-87
2022/04/08 10:21:51;;;;;;;9.07;3.00;;;6.80;99.90;;;;;;4983103;28;20065;-88
2022/04/08 10:24:26;;;;;;;8.25;2.83;;;7.40;99.90;;;;;;5015641;28;20505;-88
2022/04/08 10:27:05;;;;;;;8.55;3.00;;;6.90;99.90;;;;;;5000103;28;20056;-86
2022/04/08 10:29:32;;;;;;;6.75;2.60;;;7.00;99.90;;;;;;5015784;28;20083;-86
2022/04/08 10:32:02;;;;;;;9.35;3.10;;;7.20;99.90;;;;;;5014493;28;20483;-88
2022/04/08 10:34:35;;;;;;;6.45;2.63;;;7.30;99.90;;;;;;4999191;28;20052;-89
2022/04/08 10:37:12;;;;;;;3.40;1.60;;;7.40;99.90;;;;;;5014461;28;20045;-83
2022/04/08 10:39:38;;;;;;;5.20;1.83;;;7.30;99.90;;;;;;5015500;28;20155;-83
2022/04/08 10:42:06;;;;;;;5.35;2.40;;;7.30;99.90;;;;;;5013724;28;20076;-87
2022/04/08 10:44:34;;;;;;;8.93;3.25;;;7.40;99.90;;;;;;4982259;28;20057;-87
2022/04/08 10:47:15;;;;;;;4.25;1.90;;;7.80;99.90;;;;;;5015491;28;20105;-92
2022/04/08 10:50:02;;;;;;;4.53;1.85;;;8.00;99.90;;;;;;4998590;28;20410;-90
2022/04/08 10:52:30;;;;;;;4.50;2.00;;;8.00;99.90;;;;;;4998215;28;20131;-85
2022/04/08 10:55:07;;;;;;;7.68;2.90;;;7.90;99.90;;;;;;5014335;28;20188;-87
2022/04/08 10:57:38;;;;;;;4.95;2.15;;;7.70;99.90;;;;;;4999340;28;20121;-86
2022/04/08 11:00:12;;;;;;;3.92;2.53;;;7.60;99.90;;;;;;5014471;28;20371;-83
2022/04/08 11:02:40;;;;;;;6.47;1.98;;;7.30;99.90;;;;;;4981296;28;20052;-87
2022/04/08 11:05:11;;;;;;;4.10;1.30;;;7.20;99.90;;;;;;4981402;28;20053;-83
2022/04/08 11:07:45;;;;;;;2.90;1.65;;;7.10;99.90;;;;;;5014433;28;20069;-84
2022/04/08 11:10:13;;;;;;;3.20;1.85;;;7.00;99.90;;;;;;5013529;28;20053;-84
2022/04/08 11:13:10;;;;;;;4.35;1.75;;;6.90;99.90;;;;;;5013230;28;20053;-81
2022/04/08 11:15:38;;;;;;;5.88;1.92;;;6.60;99.90;;;;;;4982745;28;20058;-79
2022/04/08 11:18:06;;;;;;;3.45;1.60;;;6.30;99.90;;;;;;4981322;28;20490;-83
2022/04/08 11:20:34;;;;;;;3.90;1.83;;;5.90;99.90;;;;;;4980909;28;20129;-84
2022/04/08 11:23:00;;;;;;;3.03;1.55;;;6.50;99.90;;;;;;4996954;28;20100;-84
2022/04/08 11:25:30;;;;;;;4.10;2.92;;;5.90;99.90;;;;;;4981643;28;20356;-88
2022/04/08 11:28:06;;;;;;;5.10;2.15;;;5.10;99.90;;;;;;4980915;28;20442;-85
2022/04/08 11:30:38;;;;;;;8.02;2.33;;;5.00;99.90;;;;;;4997577;28;20374;-86
2022/04/08 11:33:18;;;;;;;4.22;1.92;;;5.00;99.90;;;;;;5014094;28;20065;-84
2022/04/08 11:35:46;;;;;;;5.43;1.70;;;5.70;99.90;;;;;;4997070;28;20042;-86
2022/04/08 11:38:16;;;;;;;5.07;2.30;;;5.30;99.90;;;;;;4997002;28;20403;-87
2022/04/08 11:40:43;;;;;;;4.72;2.38;;;5.10;99.90;;;;;;5013239;28;20050;-87
2022/04/08 11:43:18;;;;;;;5.70;2.42;;;5.60;99.90;;;;;;4997167;28;20128;-85
2022/04/08 11:45:45;;;;;;;7.95;2.10;;;5.20;99.90;;;;;;5012889;28;20046;-84
2022/04/08 11:48:20;;;;;;;4.20;2.42;;;5.80;99.90;;;;;;5012969;28;20108;-85
2022/04/08 11:50:47;;;;;;;8.98;2.58;;;5.90;99.90;;;;;;4996590;28;20108;-86
2022/04/08 11:53:18;;;;;;;6.38;2.42;;;5.70;99.90;;;;;;4980316;28;20172;-85
2022/04/08 11:55:55;;;;;;;7.25;2.25;;;5.60;99.90;;;;;;4980723;28;20050;-85
2022/04/08 11:58:21;;;;;;;7.03;2.75;;;6.00;99.90;;;;;;5012820;28;20449;-84
2022/04/08 12:00:49;;;;;;;10.43;2.70;;;6.10;99.90;;;;;;4997256;28;20406;-84
2022/04/08 12:03:34;;;;;;;4.95;2.50;;;6.40;99.90;;;;;;5012778;28;20081;-86
2022/04/08 12:06:01;;;;;;;10.93;2.85;;;6.70;99.90;;;;;;5012871;28;20056;-85
2022/04/08 12:08:27;;;;;;;6.82;2.80;;;7.10;99.90;;;;;;4996386;28;20085;-86
2022/04/08 12:10:57;;;;;;;5.45;2.38;;;7.30;99.90;;;;;;4996779;28;20490;-86
2022/04/08 12:13:24;;;;;;;6.57;2.00;;;7.50;99.90;;;;;;5012575;28;20096;-83
2022/04/08 12:15:54;;;;;;;4.03;1.85;;;7.70;99.90;;;;;;4996956;28;20261;-87
2022/04/08 12:18:27;;;;;;;8.10;2.10;;;7.90;99.90;;;;;;4996593;28;20058;-89
2022/04/08 12:21:05;;;;;;;4.05;1.70;;;7.90;99.90;;;;;;4997101;28;20050;-88
2022/04/08 12:23:31;;;;;;;8.23;2.15;;;8.20;99.90;;;;;;4996308;28;20104;-85
2022/04/08 12:26:05;;;;;;;7.03;2.15;;;8.50;99.90;;;;;;4996337;28;20049;-81
2022/04/08 12:28:35;;;;;;;5.45;1.90;;;8.70;99.90;;;;;;5015955;28;20474;-85
2022/04/08 12:31:21;;;;;;;6.68;1.90;;;8.80;99.90;;;;;;5000547;28;20486;-84
2022/04/08 12:33:47;;;;;;;4.20;1.98;;;8.80;99.90;;;;;;4999829;28;20038;-83
2022/04/08 12:36:13;;;;;;;6.50;2.22;;;8.80;99.90;;;;;;5000061;28;20046;-81
2022/04/08 12:38:40;;;;;;;7.22;2.95;;;8.80;99.90;;;;;;4999904;28;20164;-85
2022/04/08 12:41:07;;;;;;;4.95;2.10;;;8.70;99.90;;;;;;5016430;28;20050;-85
2022/04/08 12:43:33;;;;;;;4.03;2.08;;;8.50;99.90;;;;;;4999710;28;20054;-82
2022/04/08 12:45:59;;;;;;;4.47;1.65;;;8.50;99.90;;;;;;5016003;28;20490;-81
2022/04/08 12:48:24;;;;;;;6.53;2.10;;;9.00;99.90;;;;;;5016050;28;20050;-84
2022/04/08 12:50:50;;;;;;;3.85;1.45;;;8.80;99.90;;;;;;4983701;28;20054;-85
2022/04/08 12:53:16;;;;;;;5.22;1.60;;;9.00;99.90;;;;;;4983515;28;20402;-83
2022/04/08 12:55:41;;;;;;;3.10;1.40;;;9.00;99.90;;;;;;4999382;28;20038;-85
2022/04/08 12:58:07;;;;;;;3.65;1.50;;;8.90;99.90;;;;;;5016105;28;20042;-85
2022/04/08 13:00:33;;;;;;;3.15;1.67;;;8.90;99.90;;;;;;4983973;28;20137;-84
2022/04/08 13:03:00;;;;;;;3.22;1.80;;;8.90;99.90;;;;;;4999675;28;20453;-86
2022/04/08 13:05:26;;;;;;;4.00;1.92;;;8.90;99.90;;;;;;5000064;28;20049;-84